sensor_id;sensor_type;location;lat;lon;timestamp;pressure;altitude;pressure_sealevel;temperature;humidity
79131;BME280;68530;45.194;9.142;2023-04-01T00:01:58;99701.94;;;11.48;72.50
79131;BME280;68530;45.194;9.142;2023-04-01T00:04:23;99705.00;;;11.40;72.57
79131;BME280;68530;45.194;9.142;2023-04-01T00:06:49;99694.09;;;11.13;73.24
79131;BME280;68530;45.194;9.142;2023-04-01T00:09:14;99704.81;;;11.09;73.41
79131;BME280;68530;45.194;9.142;2023-04-01T00:11:40;99703.66;;;11.15;72.91
79131;BME280;68530;45.194;9.142;2023-04-01T00:14:06;99705.78;;;10.91;73.70
79131;BME280;68530;45.194;9.142;2023-04-01T00:16:32;99689.00;;;11.09;72.06
79131;BME280;68530;45.194;9.142;2023-04-01T00:18:57;99698.63;;;11.11;72.14
79131;BME280;68530;45.194;9.142;2023-04-01T00:21:23;99701.88;;;10.98;71.77
79131;BME280;68530;45.194;9.142;2023-04-01T00:23:49;99698.84;;;10.71;72.40
79131;BME280;68530;45.194;9.142;2023-04-01T00:26:15;99702.25;;;10.36;73.68
79131;BME280;68530;45.194;9.142;2023-04-01T00:28:44;99706.84;;;10.69;72.48
79131;BME280;68530;45.194;9.142;2023-04-01T00:31:10;99703.34;;;10.51;72.86
79131;BME280;68530;45.194;9.142;2023-04-01T00:33:35;99701.50;;;10.34;74.24
79131;BME280;68530;45.194;9.142;2023-04-01T00:36:21;99703.41;;;10.49;72.90
79131;BME280;68530;45.194;9.142;2023-04-01T00:38:47;99695.59;;;10.29;74.29
79131;BME280;68530;45.194;9.142;2023-04-01T00:41:14;99680.16;;;10.58;73.25
79131;BME280;68530;45.194;9.142;2023-04-01T00:43:41;99674.41;;;10.49;72.94
79131;BME280;68530;45.194;9.142;2023-04-01T00:46:07;99679.47;;;10.54;72.61
79131;BME280;68530;45.194;9.142;2023-04-01T00:48:35;99685.13;;;10.46;73.20
79131;BME280;68530;45.194;9.142;2023-04-01T00:51:10;99679.06;;;10.25;74.05
79131;BME280;68530;45.194;9.142;2023-04-01T00:53:41;99684.19;;;10.65;72.36
79131;BME280;68530;45.194;9.142;2023-04-01T00:56:24;99670.91;;;10.12;73.89
79131;BME280;68530;45.194;9.142;2023-04-01T00:58:54;99668.53;;;10.44;73.32
79131;BME280;68530;45.194;9.142;2023-04-01T01:01:23;99668.31;;;10.49;72.80
79131;BME280;68530;45.194;9.142;2023-04-01T01:03:49;99655.69;;;10.36;73.40
79131;BME280;68530;45.194;9.142;2023-04-01T01:09:14;99653.88;;;10.19;73.56
79131;BME280;68530;45.194;9.142;2023-04-01T01:16:48;99660.81;;;10.03;74.22
79131;BME280;68530;45.194;9.142;2023-04-01T01:19:48;99645.94;;;10.02;74.49
79131;BME280;68530;45.194;9.142;2023-04-01T01:22:35;99650.63;;;10.14;74.02
79131;BME280;68530;45.194;9.142;2023-04-01T01:27:39;99651.13;;;10.03;74.48
79131;BME280;68530;45.194;9.142;2023-04-01T01:33:08;99628.84;;;9.74;75.66
79131;BME280;68530;45.194;9.142;2023-04-01T01:35:48;99626.25;;;9.72;75.36
79131;BME280;68530;45.194;9.142;2023-04-01T01:38:21;99628.28;;;9.67;75.74
79131;BME280;68530;45.194;9.142;2023-04-01T01:40:50;99626.84;;;9.79;75.42
79131;BME280;68530;45.194;9.142;2023-04-01T01:43:21;99631.66;;;9.88;74.93
79131;BME280;68530;45.194;9.142;2023-04-01T01:45:52;99625.69;;;9.65;75.66
79131;BME280;68530;45.194;9.142;2023-04-01T01:48:19;99625.13;;;9.78;75.02
79131;BME280;68530;45.194;9.142;2023-04-01T01:50:45;99627.50;;;9.65;75.79
79131;BME280;68530;45.194;9.142;2023-04-01T01:53:12;99624.72;;;9.49;76.18
79131;BME280;68530;45.194;9.142;2023-04-01T01:55:41;99621.94;;;9.52;76.08
79131;BME280;68530;45.194;9.142;2023-04-01T02:00:37;99632.75;;;9.46;76.08
79131;BME280;68530;45.194;9.142;2023-04-01T02:03:03;99617.16;;;9.41;76.20
79131;BME280;68530;45.194;9.142;2023-04-01T02:05:30;99620.22;;;9.51;76.20
79131;BME280;68530;45.194;9.142;2023-04-01T02:08:08;99609.84;;;9.48;76.24
79131;BME280;68530;45.194;9.142;2023-04-01T02:10:39;99619.75;;;9.43;76.08
79131;BME280;68530;45.194;9.142;2023-04-01T02:13:15;99621.75;;;9.37;76.41
79131;BME280;68530;45.194;9.142;2023-04-01T02:15:46;99618.03;;;9.42;76.31
79131;BME280;68530;45.194;9.142;2023-04-01T02:18:15;99619.88;;;9.59;75.85
79131;BME280;68530;45.194;9.142;2023-04-01T02:20:42;99620.50;;;9.45;76.52
79131;BME280;68530;45.194;9.142;2023-04-01T02:23:09;99617.53;;;9.52;76.08
79131;BME280;68530;45.194;9.142;2023-04-01T02:25:37;99626.50;;;9.48;76.59
79131;BME280;68530;45.194;9.142;2023-04-01T02:28:05;99629.25;;;9.64;76.14
79131;BME280;68530;45.194;9.142;2023-04-01T02:30:33;99627.19;;;9.52;76.75
79131;BME280;68530;45.194;9.142;2023-04-01T02:33:00;99629.56;;;9.58;76.86
79131;BME280;68530;45.194;9.142;2023-04-01T02:35:26;99627.56;;;9.63;76.74
79131;BME280;68530;45.194;9.142;2023-04-01T02:37:53;99637.16;;;9.84;75.54
79131;BME280;68530;45.194;9.142;2023-04-01T02:40:19;99629.25;;;9.64;75.74
79131;BME280;68530;45.194;9.142;2023-04-01T02:42:45;99637.38;;;9.60;75.84
79131;BME280;68530;45.194;9.142;2023-04-01T02:45:11;99636.53;;;9.78;74.94
79131;BME280;68530;45.194;9.142;2023-04-01T02:47:37;99635.75;;;9.94;73.97
79131;BME280;68530;45.194;9.142;2023-04-01T02:50:03;99627.84;;;10.13;72.61
79131;BME280;68530;45.194;9.142;2023-04-01T02:52:29;99637.28;;;10.17;72.04
79131;BME280;68530;45.194;9.142;2023-04-01T02:54:56;99639.72;;;10.03;71.97
79131;BME280;68530;45.194;9.142;2023-04-01T02:57:22;99640.69;;;10.19;71.66
79131;BME280;68530;45.194;9.142;2023-04-01T02:59:48;99636.47;;;9.98;72.35
79131;BME280;68530;45.194;9.142;2023-04-01T03:02:14;99632.25;;;9.95;72.51
79131;BME280;68530;45.194;9.142;2023-04-01T03:04:40;99635.91;;;9.91;72.49
79131;BME280;68530;45.194;9.142;2023-04-01T03:07:05;99638.84;;;9.65;73.54
79131;BME280;68530;45.194;9.142;2023-04-01T03:09:31;99631.75;;;9.48;73.87
79131;BME280;68530;45.194;9.142;2023-04-01T03:11:56;99644.34;;;9.61;73.61
79131;BME280;68530;45.194;9.142;2023-04-01T03:14:22;99649.13;;;9.72;72.83
79131;BME280;68530;45.194;9.142;2023-04-01T03:16:47;99644.84;;;9.69;72.93
79131;BME280;68530;45.194;9.142;2023-04-01T03:19:12;99643.91;;;9.51;73.54
79131;BME280;68530;45.194;9.142;2023-04-01T03:21:38;99637.72;;;9.52;73.09
79131;BME280;68530;45.194;9.142;2023-04-01T03:24:03;99632.69;;;9.47;73.21
79131;BME280;68530;45.194;9.142;2023-04-01T03:26:29;99637.44;;;9.58;72.74
79131;BME280;68530;45.194;9.142;2023-04-01T03:28:55;99633.91;;;9.59;71.41
79131;BME280;68530;45.194;9.142;2023-04-01T03:31:21;99643.84;;;9.72;70.65
79131;BME280;68530;45.194;9.142;2023-04-01T03:33:47;99646.59;;;9.69;70.45
79131;BME280;68530;45.194;9.142;2023-04-01T03:36:12;99643.41;;;9.81;69.34
79131;BME280;68530;45.194;9.142;2023-04-01T03:38:39;99649.44;;;9.83;69.20
79131;BME280;68530;45.194;9.142;2023-04-01T03:41:06;99640.78;;;9.81;68.01
79131;BME280;68530;45.194;9.142;2023-04-01T03:43:31;99635.81;;;9.75;68.05
79131;BME280;68530;45.194;9.142;2023-04-01T03:45:57;99648.47;;;9.86;66.45
79131;BME280;68530;45.194;9.142;2023-04-01T03:48:23;99648.97;;;9.75;66.44
79131;BME280;68530;45.194;9.142;2023-04-01T03:50:49;99650.53;;;9.79;65.90
79131;BME280;68530;45.194;9.142;2023-04-01T03:53:14;99654.16;;;9.76;65.26
79131;BME280;68530;45.194;9.142;2023-04-01T03:55:40;99652.75;;;9.69;65.42
79131;BME280;68530;45.194;9.142;2023-04-01T03:58:06;99665.56;;;9.77;64.29
79131;BME280;68530;45.194;9.142;2023-04-01T04:00:32;99653.22;;;9.77;64.04
79131;BME280;68530;45.194;9.142;2023-04-01T04:02:58;99644.13;;;9.65;64.14
79131;BME280;68530;45.194;9.142;2023-04-01T04:05:24;99645.69;;;9.70;64.29
79131;BME280;68530;45.194;9.142;2023-04-01T04:07:50;99644.78;;;9.71;63.41
79131;BME280;68530;45.194;9.142;2023-04-01T04:10:16;99656.00;;;9.74;62.88
79131;BME280;68530;45.194;9.142;2023-04-01T04:12:41;99672.94;;;9.69;62.70
79131;BME280;68530;45.194;9.142;2023-04-01T04:15:07;99675.06;;;9.41;65.32
79131;BME280;68530;45.194;9.142;2023-04-01T04:17:33;99677.69;;;9.41;65.15
79131;BME280;68530;45.194;9.142;2023-04-01T04:19:59;99695.16;;;9.23;65.22
79131;BME280;68530;45.194;9.142;2023-04-01T04:22:24;99692.78;;;9.37;65.93
79131;BME280;68530;45.194;9.142;2023-04-01T04:24:49;99694.75;;;9.32;66.98
79131;BME280;68530;45.194;9.142;2023-04-01T04:27:15;99680.13;;;9.46;66.74
79131;BME280;68530;45.194;9.142;2023-04-01T04:29:40;99675.19;;;9.38;66.79
79131;BME280;68530;45.194;9.142;2023-04-01T04:32:05;99667.25;;;9.78;65.17
79131;BME280;68530;45.194;9.142;2023-04-01T04:34:31;99682.91;;;9.81;65.22
79131;BME280;68530;45.194;9.142;2023-04-01T04:36:56;99679.88;;;9.31;66.86
79131;BME280;68530;45.194;9.142;2023-04-01T04:39:22;99665.31;;;9.24;67.10
79131;BME280;68530;45.194;9.142;2023-04-01T04:41:47;99672.31;;;9.04;67.13
79131;BME280;68530;45.194;9.142;2023-04-01T04:44:13;99682.69;;;9.07;68.01
79131;BME280;68530;45.194;9.142;2023-04-01T04:46:38;99679.31;;;9.04;67.96
79131;BME280;68530;45.194;9.142;2023-04-01T04:49:04;99684.66;;;9.02;67.67
79131;BME280;68530;45.194;9.142;2023-04-01T04:51:30;99692.41;;;9.26;66.49
79131;BME280;68530;45.194;9.142;2023-04-01T04:53:55;99682.41;;;9.14;67.13
79131;BME280;68530;45.194;9.142;2023-04-01T04:56:22;99694.59;;;9.16;66.22
79131;BME280;68530;45.194;9.142;2023-04-01T04:58:48;99697.66;;;8.85;67.52
79131;BME280;68530;45.194;9.142;2023-04-01T05:01:15;99705.41;;;8.67;68.75
79131;BME280;68530;45.194;9.142;2023-04-01T05:03:41;99702.72;;;8.69;68.08
79131;BME280;68530;45.194;9.142;2023-04-01T05:06:08;99698.44;;;8.66;68.39
79131;BME280;68530;45.194;9.142;2023-04-01T05:08:35;99694.69;;;8.51;68.92
79131;BME280;68530;45.194;9.142;2023-04-01T05:11:00;99684.50;;;8.19;69.68
79131;BME280;68530;45.194;9.142;2023-04-01T05:13:27;99689.22;;;8.11;69.47
79131;BME280;68530;45.194;9.142;2023-04-01T05:15:52;99699.56;;;8.16;70.01
79131;BME280;68530;45.194;9.142;2023-04-01T05:18:18;99704.06;;;8.34;69.26
79131;BME280;68530;45.194;9.142;2023-04-01T05:20:51;99700.28;;;8.19;69.69
79131;BME280;68530;45.194;9.142;2023-04-01T05:23:17;99719.41;;;8.23;69.96
79131;BME280;68530;45.194;9.142;2023-04-01T05:25:43;99725.31;;;8.28;69.90
79131;BME280;68530;45.194;9.142;2023-04-01T05:28:09;99726.84;;;8.34;68.80
79131;BME280;68530;45.194;9.142;2023-04-01T05:30:35;99708.06;;;8.22;69.20
79131;BME280;68530;45.194;9.142;2023-04-01T05:33:00;99715.06;;;8.44;68.62
79131;BME280;68530;45.194;9.142;2023-04-01T05:35:26;99719.09;;;8.31;69.46
79131;BME280;68530;45.194;9.142;2023-04-01T05:37:51;99723.38;;;8.33;69.11
79131;BME280;68530;45.194;9.142;2023-04-01T05:40:16;99721.25;;;8.43;68.72
79131;BME280;68530;45.194;9.142;2023-04-01T05:42:42;99732.25;;;8.53;68.21
79131;BME280;68530;45.194;9.142;2023-04-01T05:45:08;99730.78;;;8.68;67.55
79131;BME280;68530;45.194;9.142;2023-04-01T05:47:34;99739.50;;;8.91;66.48
79131;BME280;68530;45.194;9.142;2023-04-01T05:49:59;99735.28;;;9.07;65.60
79131;BME280;68530;45.194;9.142;2023-04-01T05:52:24;99733.09;;;8.76;66.36
79131;BME280;68530;45.194;9.142;2023-04-01T05:54:50;99738.09;;;8.82;65.96
79131;BME280;68530;45.194;9.142;2023-04-01T05:57:16;99749.75;;;8.97;65.57
79131;BME280;68530;45.194;9.142;2023-04-01T05:59:41;99756.19;;;9.31;63.57
79131;BME280;68530;45.194;9.142;2023-04-01T06:02:08;99765.66;;;9.56;62.27
79131;BME280;68530;45.194;9.142;2023-04-01T06:04:38;99766.22;;;9.63;62.04
79131;BME280;68530;45.194;9.142;2023-04-01T06:07:17;99763.13;;;9.74;60.98
79131;BME280;68530;45.194;9.142;2023-04-01T06:09:44;99758.97;;;9.28;62.41
79131;BME280;68530;45.194;9.142;2023-04-01T06:31:57;99753.75;;;9.87;59.82
79131;BME280;68530;45.194;9.142;2023-04-01T06:48:10;99774.88;;;10.43;58.94
79131;BME280;68530;45.194;9.142;2023-04-01T06:55:43;99785.59;;;10.38;59.28
79131;BME280;68530;45.194;9.142;2023-04-01T07:00:47;99769.88;;;10.37;59.64
79131;BME280;68530;45.194;9.142;2023-04-01T07:06:28;99779.91;;;10.85;58.22
79131;BME280;68530;45.194;9.142;2023-04-01T07:08:58;99777.81;;;10.91;57.69
79131;BME280;68530;45.194;9.142;2023-04-01T07:11:31;99778.69;;;11.09;57.70
79131;BME280;68530;45.194;9.142;2023-04-01T07:14:23;99781.19;;;10.95;58.27
79131;BME280;68530;45.194;9.142;2023-04-01T07:17:08;99787.38;;;10.76;58.89
79131;BME280;68530;45.194;9.142;2023-04-01T07:19:45;99779.03;;;11.03;57.96
79131;BME280;68530;45.194;9.142;2023-04-01T07:24:49;99784.59;;;11.15;59.02
79131;BME280;68530;45.194;9.142;2023-04-01T07:27:15;99785.13;;;11.04;59.21
79131;BME280;68530;45.194;9.142;2023-04-01T07:29:41;99793.91;;;11.22;59.25
79131;BME280;68530;45.194;9.142;2023-04-01T07:43:22;99785.81;;;11.94;58.09
79131;BME280;68530;45.194;9.142;2023-04-01T07:45:58;99786.97;;;11.88;57.92
79131;BME280;68530;45.194;9.142;2023-04-01T07:54:26;99771.00;;;12.07;58.25
79131;BME280;68530;45.194;9.142;2023-04-01T07:59:39;99772.91;;;12.21;58.19
79131;BME280;68530;45.194;9.142;2023-04-01T08:02:27;99768.38;;;12.56;57.60
79131;BME280;68530;45.194;9.142;2023-04-01T08:05:04;99744.31;;;12.44;57.25
79131;BME280;68530;45.194;9.142;2023-04-01T08:10:25;99777.19;;;12.71;56.92
79131;BME280;68530;45.194;9.142;2023-04-01T08:13:20;99782.16;;;12.77;56.91
79131;BME280;68530;45.194;9.142;2023-04-01T08:16:12;99786.34;;;12.65;56.04
79131;BME280;68530;45.194;9.142;2023-04-01T08:21:21;99789.91;;;12.80;55.47
79131;BME280;68530;45.194;9.142;2023-04-01T08:23:48;99793.31;;;12.82;55.58
79131;BME280;68530;45.194;9.142;2023-04-01T08:26:30;99798.44;;;12.85;55.09
79131;BME280;68530;45.194;9.142;2023-04-01T08:29:04;99793.28;;;12.98;55.19
79131;BME280;68530;45.194;9.142;2023-04-01T08:31:58;99793.78;;;13.05;54.92
79131;BME280;68530;45.194;9.142;2023-04-01T08:34:33;99781.44;;;13.20;54.14
79131;BME280;68530;45.194;9.142;2023-04-01T08:37:14;99786.47;;;13.39;52.24
79131;BME280;68530;45.194;9.142;2023-04-01T08:39:55;99783.19;;;13.35;52.08
79131;BME280;68530;45.194;9.142;2023-04-01T08:42:53;99779.53;;;13.53;51.91
79131;BME280;68530;45.194;9.142;2023-04-01T08:48:15;99776.41;;;13.46;51.00
79131;BME280;68530;45.194;9.142;2023-04-01T08:56:10;99782.38;;;13.64;50.86
79131;BME280;68530;45.194;9.142;2023-04-01T09:04:42;99787.31;;;13.85;49.24
79131;BME280;68530;45.194;9.142;2023-04-01T09:21:06;99777.97;;;14.21;48.43
79131;BME280;68530;45.194;9.142;2023-04-01T09:37:34;99788.06;;;14.71;46.71
79131;BME280;68530;45.194;9.142;2023-04-01T09:43:16;99791.00;;;14.81;46.93
79131;BME280;68530;45.194;9.142;2023-04-01T09:48:24;99783.84;;;14.68;47.71
79131;BME280;68530;45.194;9.142;2023-04-01T09:51:16;99786.66;;;14.80;46.34
79131;BME280;68530;45.194;9.142;2023-04-01T10:03:13;99786.72;;;14.93;45.81
79131;BME280;68530;45.194;9.142;2023-04-01T10:22:21;99771.75;;;15.04;43.97
79131;BME280;68530;45.194;9.142;2023-04-01T10:25:15;99771.13;;;15.14;43.20
79131;BME280;68530;45.194;9.142;2023-04-01T10:39:38;99742.88;;;15.65;39.53
79131;BME280;68530;45.194;9.142;2023-04-01T10:50:35;99720.06;;;16.12;38.21
79131;BME280;68530;45.194;9.142;2023-04-01T10:58:57;99729.41;;;16.18;37.35
79131;BME280;68530;45.194;9.142;2023-04-01T11:01:39;99719.47;;;15.96;39.51
79131;BME280;68530;45.194;9.142;2023-04-01T11:04:32;99716.78;;;16.09;41.08
79131;BME280;68530;45.194;9.142;2023-04-01T11:10:18;99719.81;;;16.28;38.94
79131;BME280;68530;45.194;9.142;2023-04-01T11:23:54;99716.47;;;16.00;39.35
79131;BME280;68530;45.194;9.142;2023-04-01T11:32:22;99710.38;;;16.11;37.99
79131;BME280;68530;45.194;9.142;2023-04-01T11:40:49;99692.88;;;15.96;38.84
79131;BME280;68530;45.194;9.142;2023-04-01T12:02:48;99672.00;;;16.51;33.88
79131;BME280;68530;45.194;9.142;2023-04-01T12:08:06;99664.72;;;16.42;32.76
79131;BME280;68530;45.194;9.142;2023-04-01T12:13:49;99651.59;;;16.63;32.28
79131;BME280;68530;45.194;9.142;2023-04-01T12:20:18;99656.19;;;16.61;32.13
79131;BME280;68530;45.194;9.142;2023-04-01T12:23:12;99639.97;;;16.53;32.78
79131;BME280;68530;45.194;9.142;2023-04-01T12:28:27;99651.00;;;16.71;31.91
79131;BME280;68530;45.194;9.142;2023-04-01T12:34:00;99643.84;;;16.60;31.81
79131;BME280;68530;45.194;9.142;2023-04-01T12:45:00;99625.09;;;17.20;30.68
79131;BME280;68530;45.194;9.142;2023-04-01T12:52:58;99622.91;;;17.25;29.20
79131;BME280;68530;45.194;9.142;2023-04-01T12:55:39;99621.91;;;17.49;28.64
79131;BME280;68530;45.194;9.142;2023-04-01T13:09:10;99606.94;;;17.02;31.08
79131;BME280;68530;45.194;9.142;2023-04-01T13:12:01;99600.09;;;16.98;31.16
79131;BME280;68530;45.194;9.142;2023-04-01T13:14:50;99602.81;;;17.10;29.88
79131;BME280;68530;45.194;9.142;2023-04-01T13:25:46;99591.31;;;17.87;27.50
79131;BME280;68530;45.194;9.142;2023-04-01T13:44:54;99559.06;;;17.58;27.17
79131;BME280;68530;45.194;9.142;2023-04-01T13:53:15;99562.25;;;17.84;25.93
79131;BME280;68530;45.194;9.142;2023-04-01T14:01:33;99563.88;;;17.64;27.01
79131;BME280;68530;45.194;9.142;2023-04-01T14:07:12;99546.03;;;17.76;26.86
79131;BME280;68530;45.194;9.142;2023-04-01T14:23:33;99525.56;;;18.09;24.64
79131;BME280;68530;45.194;9.142;2023-04-01T14:40:52;99489.59;;;18.56;22.53
79131;BME280;68530;45.194;9.142;2023-04-01T14:49:02;99475.69;;;18.31;22.28
79131;BME280;68530;45.194;9.142;2023-04-01T14:51:33;99461.19;;;18.45;23.33
79131;BME280;68530;45.194;9.142;2023-04-01T14:54:04;99477.91;;;18.26;24.73
79131;BME280;68530;45.194;9.142;2023-04-01T14:56:40;99470.00;;;18.45;24.14
79131;BME280;68530;45.194;9.142;2023-04-01T14:59:30;99466.97;;;18.29;24.84
79131;BME280;68530;45.194;9.142;2023-04-01T15:10:39;99454.41;;;17.98;25.26
79131;BME280;68530;45.194;9.142;2023-04-01T15:26:37;99442.94;;;18.50;23.82
79131;BME280;68530;45.194;9.142;2023-04-01T15:31:54;99433.41;;;18.26;24.66
79131;BME280;68530;45.194;9.142;2023-04-01T15:51:11;99420.00;;;18.88;23.38
79131;BME280;68530;45.194;9.142;2023-04-01T16:15:31;99411.13;;;18.37;24.32
79131;BME280;68530;45.194;9.142;2023-04-01T16:24:02;99416.88;;;18.73;23.00
79131;BME280;68530;45.194;9.142;2023-04-01T16:26:44;99420.19;;;18.56;23.19
79131;BME280;68530;45.194;9.142;2023-04-01T16:35:56;99418.56;;;18.74;21.92
79131;BME280;68530;45.194;9.142;2023-04-01T16:41:10;99405.09;;;18.76;21.73
79131;BME280;68530;45.194;9.142;2023-04-01T16:43:52;99406.34;;;18.82;21.79
79131;BME280;68530;45.194;9.142;2023-04-01T16:46:39;99416.47;;;18.78;22.52
79131;BME280;68530;45.194;9.142;2023-04-01T16:56:55;99415.91;;;18.43;23.38
79131;BME280;68530;45.194;9.142;2023-04-01T17:02:10;99415.75;;;18.35;23.35
79131;BME280;68530;45.194;9.142;2023-04-01T17:04:49;99418.31;;;18.46;23.10
79131;BME280;68530;45.194;9.142;2023-04-01T17:15:29;99417.91;;;18.20;23.95
79131;BME280;68530;45.194;9.142;2023-04-01T17:20:46;99421.66;;;18.08;23.99
79131;BME280;68530;45.194;9.142;2023-04-01T17:28:50;99426.75;;;17.78;25.04
79131;BME280;68530;45.194;9.142;2023-04-01T17:31:26;99427.53;;;17.69;25.29
79131;BME280;68530;45.194;9.142;2023-04-01T17:34:00;99427.13;;;17.73;25.17
79131;BME280;68530;45.194;9.142;2023-04-01T17:36:36;99421.16;;;17.60;26.53
79131;BME280;68530;45.194;9.142;2023-04-01T17:41:59;99412.69;;;17.55;25.39
79131;BME280;68530;45.194;9.142;2023-04-01T17:50:23;99408.63;;;17.39;25.30
79131;BME280;68530;45.194;9.142;2023-04-01T17:58:28;99418.31;;;17.40;25.53
79131;BME280;68530;45.194;9.142;2023-04-01T18:04:08;99426.47;;;17.27;26.43
79131;BME280;68530;45.194;9.142;2023-04-01T18:09:56;99422.91;;;17.17;25.91
79131;BME280;68530;45.194;9.142;2023-04-01T18:17:42;99428.59;;;17.01;26.78
79131;BME280;68530;45.194;9.142;2023-04-01T18:25:45;99423.41;;;16.88;27.22
79131;BME280;68530;45.194;9.142;2023-04-01T18:28:40;99423.25;;;16.89;27.65
79131;BME280;68530;45.194;9.142;2023-04-01T18:31:15;99426.44;;;16.83;27.95
79131;BME280;68530;45.194;9.142;2023-04-01T18:36:40;99427.53;;;16.69;28.65
79131;BME280;68530;45.194;9.142;2023-04-01T18:41:54;99443.16;;;16.62;28.59
79131;BME280;68530;45.194;9.142;2023-04-01T18:47:48;99469.66;;;16.53;29.72
79131;BME280;68530;45.194;9.142;2023-04-01T18:50:28;99464.06;;;16.44;30.26
79131;BME280;68530;45.194;9.142;2023-04-01T18:58:25;99475.63;;;16.09;31.05
79131;BME280;68530;45.194;9.142;2023-04-01T19:03:34;99487.19;;;15.97;31.83
79131;BME280;68530;45.194;9.142;2023-04-01T19:06:15;99487.19;;;15.97;31.71
79131;BME280;68530;45.194;9.142;2023-04-01T19:08:44;99487.41;;;15.94;31.72
79131;BME280;68530;45.194;9.142;2023-04-01T19:11:26;99495.28;;;15.95;31.61
79131;BME280;68530;45.194;9.142;2023-04-01T19:14:18;99493.59;;;15.94;31.59
79131;BME280;68530;45.194;9.142;2023-04-01T19:17:00;99490.75;;;15.84;31.84
79131;BME280;68530;45.194;9.142;2023-04-01T19:19:50;99498.50;;;15.87;31.65
79131;BME280;68530;45.194;9.142;2023-04-01T19:25:12;99502.22;;;15.85;31.44
79131;BME280;68530;45.194;9.142;2023-04-01T19:27:53;99498.28;;;15.90;31.14
79131;BME280;68530;45.194;9.142;2023-04-01T19:38:31;99492.88;;;15.79;31.18
79131;BME280;68530;45.194;9.142;2023-04-01T19:46:33;99504.09;;;15.47;31.74
79131;BME280;68530;45.194;9.142;2023-04-01T19:49:31;99509.31;;;15.48;32.03
79131;BME280;68530;45.194;9.142;2023-04-01T19:52:06;99516.09;;;15.53;31.64
79131;BME280;68530;45.194;9.142;2023-04-01T19:54:38;99513.44;;;15.53;31.74
79131;BME280;68530;45.194;9.142;2023-04-01T20:04:53;99511.31;;;15.20;32.42
79131;BME280;68530;45.194;9.142;2023-04-01T20:07:37;99519.81;;;15.26;31.39
79131;BME280;68530;45.194;9.142;2023-04-01T20:10:32;99518.22;;;15.23;32.00
79131;BME280;68530;45.194;9.142;2023-04-01T20:15:46;99525.31;;;15.36;30.63
79131;BME280;68530;45.194;9.142;2023-04-01T20:18:23;99528.72;;;15.25;31.28
79131;BME280;68530;45.194;9.142;2023-04-01T20:20:57;99531.72;;;15.20;31.37
79131;BME280;68530;45.194;9.142;2023-04-01T20:23:40;99538.00;;;15.19;30.60
79131;BME280;68530;45.194;9.142;2023-04-01T20:26:13;99533.97;;;15.13;30.96
79131;BME280;68530;45.194;9.142;2023-04-01T20:29:07;99538.19;;;15.16;31.04
79131;BME280;68530;45.194;9.142;2023-04-01T20:31:41;99538.31;;;15.14;30.79
79131;BME280;68530;45.194;9.142;2023-04-01T20:46:20;99539.72;;;14.94;30.34
79131;BME280;68530;45.194;9.142;2023-04-01T20:52:18;99542.06;;;14.86;30.33
79131;BME280;68530;45.194;9.142;2023-04-01T21:05:47;99554.22;;;14.49;31.63
79131;BME280;68530;45.194;9.142;2023-04-01T21:27:57;99577.91;;;14.53;29.46
79131;BME280;68530;45.194;9.142;2023-04-01T21:30:54;99581.84;;;14.60;30.45
79131;BME280;68530;45.194;9.142;2023-04-01T21:38:33;99596.44;;;14.27;31.46
79131;BME280;68530;45.194;9.142;2023-04-01T21:41:33;99596.63;;;14.24;31.03
79131;BME280;68530;45.194;9.142;2023-04-01T22:14:50;99599.41;;;13.95;31.23
79131;BME280;68530;45.194;9.142;2023-04-01T22:20:37;99601.88;;;13.83;31.87
79131;BME280;68530;45.194;9.142;2023-04-01T22:25:42;99607.31;;;13.82;30.91
79131;BME280;68530;45.194;9.142;2023-04-01T22:28:22;99606.09;;;13.73;32.08
79131;BME280;68530;45.194;9.142;2023-04-01T22:30:57;99603.28;;;13.61;32.32
79131;BME280;68530;45.194;9.142;2023-04-01T22:36:44;99600.28;;;13.53;32.33
79131;BME280;68530;45.194;9.142;2023-04-01T22:44:47;99607.84;;;13.45;33.44
79131;BME280;68530;45.194;9.142;2023-04-01T22:52:38;99615.41;;;13.51;32.55
79131;BME280;68530;45.194;9.142;2023-04-01T22:59:00;99617.66;;;13.43;33.22
79131;BME280;68530;45.194;9.142;2023-04-01T23:00:59;99605.94;;;13.32;33.99
79131;BME280;68530;45.194;9.142;2023-04-01T23:03:39;99610.69;;;13.27;34.48
79131;BME280;68530;45.194;9.142;2023-04-01T23:06:09;99598.38;;;13.26;34.23
79131;BME280;68530;45.194;9.142;2023-04-01T23:08:55;99598.84;;;13.33;34.57
79131;BME280;68530;45.194;9.142;2023-04-01T23:11:43;99599.13;;;13.28;35.14
79131;BME280;68530;45.194;9.142;2023-04-01T23:19:41;99581.38;;;13.16;35.21
79131;BME280;68530;45.194;9.142;2023-04-01T23:24:58;99601.97;;;13.40;35.19
79131;BME280;68530;45.194;9.142;2023-04-01T23:27:31;99601.97;;;13.40;35.59
79131;BME280;68530;45.194;9.142;2023-04-01T23:30:02;99597.22;;;13.59;35.46
79131;BME280;68530;45.194;9.142;2023-04-01T23:32:28;99594.31;;;13.49;35.25
79131;BME280;68530;45.194;9.142;2023-04-01T23:34:56;99605.63;;;13.66;35.03
79131;BME280;68530;45.194;9.142;2023-04-01T23:37:23;99608.72;;;13.45;35.51
79131;BME280;68530;45.194;9.142;2023-04-01T23:39:55;99598.56;;;13.38;36.26
79131;BME280;68530;45.194;9.142;2023-04-01T23:42:33;99590.06;;;13.18;36.63
79131;BME280;68530;45.194;9.142;2023-04-01T23:45:11;99604.44;;;13.28;36.72
79131;BME280;68530;45.194;9.142;2023-04-01T23:47:39;99606.13;;;13.29;36.49
79131;BME280;68530;45.194;9.142;2023-04-01T23:50:14;99602.25;;;13.20;37.60
79131;BME280;68530;45.194;9.142;2023-04-01T23:53:03;99601.97;;;13.11;36.91
79131;BME280;68530;45.194;9.142;2023-04-01T23:55:33;99596.13;;;13.05;37.87
